createdAt,value
2019-05-02T00:01:26.788Z,45.40
2019-05-02T00:03:56.231Z,53.77
2019-05-02T00:06:26.104Z,49.63
2019-05-02T00:08:55.865Z,48.70
2019-05-02T00:11:26.167Z,46.37
2019-05-02T00:13:55.876Z,48.83
2019-05-02T00:16:25.480Z,47.63
2019-05-02T00:18:54.662Z,48.97
2019-05-02T00:21:23.987Z,49.77
2019-05-02T00:23:53.683Z,50.83
2019-05-02T00:26:24.549Z,53.10
2019-05-02T00:28:53.753Z,51.27
2019-05-02T00:31:22.995Z,56.73
2019-05-02T00:33:52.237Z,57.70
2019-05-02T00:36:21.412Z,59.17
2019-05-02T00:38:50.652Z,58.77
2019-05-02T00:41:19.886Z,61.90
2019-05-02T00:43:49.055Z,68.37
2019-05-02T00:46:18.636Z,69.93
2019-05-02T00:48:54.137Z,65.90
2019-05-02T00:51:26.699Z,72.23
2019-05-02T00:53:56.062Z,71.60
2019-05-02T00:56:25.241Z,69.57
2019-05-02T00:58:54.524Z,68.47
2019-05-02T01:01:41.702Z,68.40
2019-05-02T01:04:23.377Z,65.00
2019-05-02T01:06:51.599Z,69.13
2019-05-02T01:09:20.763Z,64.97
2019-05-02T01:11:50.008Z,71.20
2019-05-02T01:14:19.156Z,80.77
2019-05-02T01:16:49.382Z,78.07
2019-05-02T01:19:19.290Z,87.20
2019-05-02T01:21:48.568Z,79.17
2019-05-02T01:24:17.834Z,80.87
2019-05-02T01:27:06.544Z,84.70
2019-05-02T01:29:50.667Z,82.37
2019-05-02T01:32:32.456Z,93.80
2019-05-02T01:35:07.521Z,87.40
2019-05-02T01:37:56.016Z,98.13
2019-05-02T01:40:25.468Z,100.10
2019-05-02T01:42:57.401Z,104.60
2019-05-02T01:45:26.667Z,112.43
2019-05-02T01:47:55.934Z,110.00
2019-05-02T01:50:28.871Z,119.83
2019-05-02T01:52:58.491Z,106.87
2019-05-02T01:55:27.551Z,100.23
2019-05-02T01:57:57.045Z,102.57
2019-05-02T02:00:26.213Z,103.87
2019-05-02T02:02:55.863Z,114.07
2019-05-02T02:05:27.679Z,118.90
2019-05-02T02:07:57.480Z,108.40
2019-05-02T02:10:27.244Z,110.23
2019-05-02T02:13:04.701Z,104.83
2019-05-02T02:15:29.031Z,117.73
2019-05-02T02:17:58.723Z,103.90
2019-05-02T02:20:30.557Z,112.70
2019-05-02T02:23:27.993Z,118.20
2019-05-02T02:26:00.466Z,118.07
2019-05-02T02:28:32.055Z,115.93
2019-05-02T02:31:04.736Z,113.33
2019-05-02T02:33:32.428Z,125.07
2019-05-02T02:36:01.944Z,115.00
2019-05-02T02:38:33.789Z,111.33
2019-05-02T02:41:06.335Z,120.20
2019-05-02T02:43:35.072Z,114.87
2019-05-02T02:46:22.830Z,123.73
2019-05-02T02:48:52.590Z,121.13
2019-05-02T02:51:24.533Z,123.37
2019-05-02T02:54:03.040Z,127.43
2019-05-02T02:56:24.153Z,130.57
2019-05-02T02:58:53.433Z,112.43
2019-05-02T03:01:28.739Z,131.53
2019-05-02T03:03:53.971Z,129.30
2019-05-02T03:06:23.643Z,129.10
2019-05-02T03:08:53.148Z,125.17
2019-05-02T03:11:25.534Z,117.57
2019-05-02T03:14:07.474Z,130.23
2019-05-02T03:16:33.199Z,124.27
2019-05-02T03:19:02.626Z,122.33
2019-05-02T03:21:32.163Z,119.80
2019-05-02T03:24:03.427Z,128.00
2019-05-02T03:26:33.668Z,109.43
2019-05-02T03:29:04.386Z,115.97
2019-05-02T03:31:33.988Z,124.27
2019-05-02T03:34:03.806Z,111.80
2019-05-02T03:36:36.456Z,127.57
2019-05-02T03:39:13.963Z,118.10
2019-05-02T03:41:36.681Z,114.77
2019-05-02T03:44:10.984Z,106.43
2019-05-02T03:46:36.802Z,123.33
2019-05-02T03:49:09.275Z,120.87
2019-05-02T03:51:37.425Z,121.53
2019-05-02T03:54:10.035Z,130.33
2019-05-02T03:56:37.606Z,120.17
2019-05-02T03:59:06.852Z,117.87
2019-05-02T04:01:41.324Z,126.13
2019-05-02T04:04:07.811Z,119.83
2019-05-02T04:06:37.094Z,117.13
2019-05-02T04:09:08.206Z,113.43
2019-05-02T04:11:39.439Z,113.77
2019-05-02T04:14:15.892Z,105.50
2019-05-02T04:16:41.043Z,109.10
2019-05-02T04:19:10.688Z,111.00
2019-05-02T04:21:39.958Z,118.37
2019-05-02T04:24:15.186Z,109.57
2019-05-02T04:26:52.232Z,103.33
2019-05-02T04:29:11.896Z,122.10
2019-05-02T04:31:41.101Z,112.83
2019-05-02T04:34:15.808Z,105.53
2019-05-02T04:36:45.670Z,113.40
2019-05-02T04:39:17.598Z,110.90
2019-05-02T04:41:43.533Z,121.80
2019-05-02T04:44:12.781Z,115.50
2019-05-02T04:46:43.454Z,123.47
2019-05-02T04:49:12.942Z,125.73
2019-05-02T04:51:50.658Z,117.83
2019-05-02T04:54:21.352Z,110.97
2019-05-02T04:56:49.700Z,116.97
2019-05-02T04:59:19.883Z,127.70
2019-05-02T05:01:54.634Z,116.93
2019-05-02T05:04:18.028Z,119.90
2019-05-02T05:06:56.434Z,114.07
2019-05-02T05:09:18.960Z,118.53
2019-05-02T05:11:48.323Z,114.63
2019-05-02T05:14:18.006Z,115.77
2019-05-02T05:16:51.701Z,106.67
2019-05-02T05:19:18.204Z,114.70
2019-05-02T05:21:47.716Z,118.63
2019-05-02T05:24:42.477Z,113.90
2019-05-02T05:27:13.256Z,113.97
2019-05-02T05:29:45.933Z,109.33
2019-05-02T05:32:14.152Z,105.50
2019-05-02T05:34:43.686Z,112.97
2019-05-02T05:37:13.543Z,112.53
2019-05-02T05:39:48.076Z,107.37
2019-05-02T05:42:13.959Z,103.67
2019-05-02T05:44:43.151Z,108.73
2019-05-02T05:47:16.923Z,112.43
2019-05-02T05:49:43.613Z,112.73
2019-05-02T05:52:12.794Z,106.17
2019-05-02T05:54:42.397Z,103.90
2019-05-02T05:57:12.190Z,107.07
2019-05-02T05:59:42.585Z,107.23
2019-05-02T06:02:14.608Z,103.77
2019-05-02T06:04:43.221Z,101.80
2019-05-02T06:07:12.483Z,94.50
2019-05-02T06:09:41.726Z,98.10
2019-05-02T06:12:11.716Z,95.63
2019-05-02T06:14:41.219Z,88.03
2019-05-02T06:17:10.815Z,92.17
2019-05-02T06:19:40.475Z,85.17
2019-05-02T06:22:09.760Z,75.60
2019-05-02T06:24:39.177Z,76.77
2019-05-02T06:27:08.411Z,74.40
2019-05-02T06:29:37.571Z,72.70
2019-05-02T06:32:06.763Z,57.97
2019-05-02T06:34:38.817Z,66.10
2019-05-02T06:37:08.105Z,54.67
2019-05-02T06:39:38.684Z,58.23
2019-05-02T06:42:08.051Z,53.13
2019-05-02T06:44:37.278Z,58.87
2019-05-02T06:47:06.929Z,52.87
2019-05-02T06:49:36.874Z,47.47
2019-05-02T06:52:06.384Z,45.77
2019-05-02T06:54:35.677Z,46.33
2019-05-02T06:57:05.108Z,40.83
2019-05-02T06:59:36.811Z,43.27
2019-05-02T07:02:06.150Z,46.83
2019-05-02T07:04:35.652Z,52.07
2019-05-02T07:07:05.018Z,45.30
2019-05-02T07:09:40.879Z,50.57
2019-05-02T07:12:09.887Z,68.00
2019-05-02T07:14:36.810Z,65.27
2019-05-02T07:17:13.922Z,71.47
2019-05-02T07:19:46.363Z,69.83
2019-05-02T07:22:15.694Z,73.40
2019-05-02T07:24:45.149Z,68.27
2019-05-02T07:27:14.650Z,66.57
2019-05-02T07:29:44.372Z,69.13
2019-05-02T07:32:13.964Z,63.97
2019-05-02T07:34:44.142Z,67.20
2019-05-02T07:37:14.383Z,62.47
2019-05-02T07:39:43.850Z,61.50
2019-05-02T07:42:13.276Z,63.90
2019-05-02T07:44:42.818Z,60.70
2019-05-02T07:47:11.982Z,55.60
2019-05-02T07:49:41.187Z,56.77
2019-05-02T07:52:10.346Z,55.33
2019-05-02T07:54:39.972Z,52.97
2019-05-02T07:57:09.391Z,53.20
2019-05-02T07:59:38.564Z,53.00
2019-05-02T08:02:07.914Z,58.50
2019-05-02T08:04:37.173Z,51.77
2019-05-02T08:07:06.411Z,49.93
2019-05-02T08:09:39.159Z,53.50
2019-05-02T08:12:08.129Z,54.30
2019-05-02T08:14:37.306Z,52.17
2019-05-02T08:17:16.170Z,54.13
2019-05-02T08:19:41.596Z,51.40
2019-05-02T08:22:13.350Z,51.43
2019-05-02T08:24:39.427Z,53.60
2019-05-02T08:27:36.745Z,52.27
2019-05-02T08:30:06.446Z,56.87
2019-05-02T08:32:35.674Z,53.50
2019-05-02T08:35:05.308Z,54.47
2019-05-02T08:37:35.177Z,54.80
2019-05-02T08:40:10.741Z,58.07
2019-05-02T08:42:37.418Z,65.63
2019-05-02T08:45:06.781Z,59.57
2019-05-02T08:47:36.282Z,55.00
2019-05-02T08:50:07.721Z,55.67
2019-05-02T08:52:41.636Z,53.67
2019-05-02T08:55:09.709Z,51.17
2019-05-02T08:57:38.935Z,54.67
2019-05-02T09:00:10.229Z,49.87
2019-05-02T09:02:41.426Z,47.73
2019-05-02T09:05:10.845Z,48.57
2019-05-02T09:07:42.885Z,49.23
2019-05-02T09:10:11.557Z,50.63
2019-05-02T09:12:45.064Z,47.03
2019-05-02T09:15:12.463Z,46.70
2019-05-02T09:17:46.077Z,44.43
2019-05-02T09:20:16.661Z,42.33
2019-05-02T09:22:46.700Z,37.43
2019-05-02T09:25:15.951Z,38.17
2019-05-02T09:27:45.225Z,39.67
2019-05-02T09:30:17.127Z,43.70
2019-05-02T09:32:46.328Z,39.60
2019-05-02T09:35:15.575Z,41.40
2019-05-02T09:37:44.747Z,38.50
2019-05-02T09:40:16.727Z,37.30
2019-05-02T09:42:47.553Z,36.13
2019-05-02T09:45:27.807Z,36.63
2019-05-02T09:48:04.156Z,39.37
2019-05-02T09:50:31.201Z,37.87
2019-05-02T09:52:56.715Z,38.57
2019-05-02T09:55:25.901Z,38.03
2019-05-02T09:57:55.336Z,39.20
2019-05-02T10:00:42.714Z,40.33
2019-05-02T10:03:12.573Z,38.43
2019-05-02T10:05:43.070Z,43.97
2019-05-02T10:08:13.896Z,43.97
2019-05-02T10:10:45.857Z,43.77
2019-05-02T10:13:14.447Z,41.57
2019-05-02T10:15:43.703Z,45.47
2019-05-02T10:18:14.560Z,43.90
2019-05-02T10:20:43.860Z,43.60
2019-05-02T10:23:19.573Z,44.10
2019-05-02T10:25:46.972Z,45.00
2019-05-02T10:28:16.176Z,45.43
2019-05-02T10:30:47.270Z,45.47
2019-05-02T10:33:16.738Z,47.03
2019-05-02T10:35:48.010Z,42.10
2019-05-02T10:38:19.368Z,43.87
2019-05-02T10:40:53.092Z,43.40
2019-05-02T10:43:19.436Z,45.53
2019-05-02T10:45:56.495Z,51.03
2019-05-02T10:48:28.930Z,49.67
2019-05-02T10:51:17.826Z,55.23
2019-05-02T10:53:51.955Z,53.03
2019-05-02T10:56:18.122Z,55.50
2019-05-02T10:58:47.397Z,57.90
2019-05-02T11:01:17.742Z,61.47
2019-05-02T11:03:47.975Z,62.93
2019-05-02T11:06:17.938Z,60.00
2019-05-02T11:08:47.182Z,62.90
2019-05-02T11:11:16.623Z,66.27
2019-05-02T11:14:01.026Z,69.47
2019-05-02T11:16:56.885Z,68.03
2019-05-02T11:19:42.005Z,65.83
2019-05-02T11:22:12.100Z,68.07
2019-05-02T11:24:41.776Z,69.57
2019-05-02T11:27:12.837Z,77.13
2019-05-02T11:29:42.610Z,76.33
2019-05-02T11:32:12.830Z,74.73
2019-05-02T11:34:42.162Z,82.60
2019-05-02T11:37:12.231Z,74.73
2019-05-02T11:39:46.865Z,72.47
2019-05-02T11:42:12.580Z,71.80
2019-05-02T11:44:42.016Z,68.57
2019-05-02T11:47:12.586Z,75.80
2019-05-02T11:49:46.534Z,71.03
2019-05-02T11:52:13.264Z,70.53
2019-05-02T11:54:46.774Z,73.10
2019-05-02T11:57:14.555Z,78.30
2019-05-02T11:59:43.925Z,77.23
2019-05-02T12:02:24.961Z,79.77
2019-05-02T12:04:55.538Z,82.77
2019-05-02T12:07:25.161Z,83.33
2019-05-02T12:09:57.104Z,81.90
2019-05-02T12:12:27.238Z,80.03
2019-05-02T12:14:56.459Z,79.87
2019-05-02T12:17:25.636Z,76.80
2019-05-02T12:19:54.873Z,74.13
2019-05-02T12:22:24.076Z,78.30
2019-05-02T12:24:53.572Z,73.87
2019-05-02T12:27:23.015Z,71.67
2019-05-02T12:29:57.732Z,76.43
2019-05-02T12:32:23.711Z,67.97
2019-05-02T12:34:53.035Z,68.27
2019-05-02T12:37:22.263Z,74.07
2019-05-02T12:39:51.787Z,75.33
2019-05-02T12:42:23.965Z,68.77
2019-05-02T12:44:53.251Z,67.07
2019-05-02T12:47:22.635Z,72.60
2019-05-02T12:49:52.088Z,68.77
2019-05-02T12:52:22.567Z,75.60
2019-05-02T12:54:52.538Z,74.97
2019-05-02T12:57:22.231Z,71.87
2019-05-02T12:59:52.445Z,63.60
2019-05-02T13:02:32.103Z,61.37
2019-05-02T13:05:02.486Z,58.40
2019-05-02T13:07:31.875Z,56.40
2019-05-02T13:10:02.420Z,57.23
2019-05-02T13:12:35.254Z,59.47
2019-05-02T13:15:04.689Z,71.40
2019-05-02T13:17:37.168Z,50.60
2019-05-02T13:20:08.206Z,47.47
2019-05-02T13:23:03.437Z,56.47
2019-05-02T13:25:36.849Z,61.47
2019-05-02T13:28:04.279Z,65.97
2019-05-02T13:30:52.766Z,63.57
2019-05-02T13:33:32.453Z,65.73
2019-05-02T13:36:02.538Z,65.87
2019-05-02T13:38:32.944Z,65.10
2019-05-02T13:41:02.731Z,64.93
2019-05-02T13:43:39.255Z,70.07
2019-05-02T13:46:13.880Z,76.47
2019-05-02T13:48:43.393Z,66.10
2019-05-02T13:51:13.531Z,78.07
2019-05-02T13:53:57.670Z,66.07
2019-05-02T13:56:45.919Z,42.00
2019-05-02T13:59:15.823Z,58.10
2019-05-02T14:01:47.010Z,56.07
2019-05-02T14:04:16.515Z,47.00
2019-05-02T14:06:45.713Z,47.30
2019-05-02T14:09:34.803Z,47.83
2019-05-02T14:12:14.601Z,46.40
2019-05-02T14:14:43.876Z,35.10
2019-05-02T14:17:13.167Z,41.77
2019-05-02T14:19:42.636Z,40.07
2019-05-02T14:22:12.847Z,44.17
2019-05-02T14:24:42.452Z,48.70
2019-05-02T14:27:12.887Z,37.13
2019-05-02T14:29:42.857Z,40.83
2019-05-02T14:32:21.442Z,38.83
2019-05-02T14:35:05.299Z,36.93
2019-05-02T14:37:34.563Z,35.43
2019-05-02T14:40:22.411Z,36.63
2019-05-02T14:42:52.904Z,39.67
2019-05-02T14:45:30.244Z,40.13
2019-05-02T14:47:57.274Z,34.93
2019-05-02T14:50:26.556Z,39.93
2019-05-02T14:52:56.900Z,37.37
2019-05-02T14:55:29.042Z,39.50
2019-05-02T14:58:01.105Z,43.47
2019-05-02T15:00:31.566Z,38.60
2019-05-02T15:03:03.383Z,36.40
2019-05-02T15:05:32.707Z,37.10
2019-05-02T15:08:06.669Z,35.83
2019-05-02T15:10:36.357Z,35.77
2019-05-02T15:13:04.758Z,32.43
2019-05-02T15:15:40.766Z,32.33
2019-05-02T15:18:07.967Z,33.33
2019-05-02T15:20:39.190Z,32.90
2019-05-02T15:23:07.141Z,25.93
2019-05-02T15:25:37.754Z,36.27
2019-05-02T15:28:09.633Z,44.83
2019-05-02T15:30:44.815Z,32.20
2019-05-02T15:33:17.154Z,32.27
2019-05-02T15:35:57.184Z,36.60
2019-05-02T15:38:28.006Z,28.27
2019-05-02T15:40:59.319Z,30.93
2019-05-02T15:44:13.132Z,31.67
2019-05-02T15:46:42.689Z,31.27
2019-05-02T15:49:12.405Z,32.77
2019-05-02T15:51:43.662Z,39.87
2019-05-02T15:54:13.351Z,31.80
2019-05-02T15:57:00.501Z,28.30
2019-05-02T15:59:44.479Z,27.23
2019-05-02T16:02:10.569Z,25.77
2019-05-02T16:04:41.779Z,24.90
2019-05-02T16:07:12.203Z,25.30
2019-05-02T16:09:41.923Z,23.03
2019-05-02T16:12:12.196Z,20.70
2019-05-02T16:14:42.478Z,14.47
2019-05-02T16:17:12.547Z,15.57
2019-05-02T16:19:46.782Z,17.17
2019-05-02T16:22:17.498Z,18.43
2019-05-02T16:24:48.865Z,19.07
2019-05-02T16:27:23.786Z,19.90
2019-05-02T16:29:48.569Z,20.40
2019-05-02T16:32:37.861Z,22.50
2019-05-02T16:35:15.320Z,21.53
2019-05-02T16:37:39.360Z,23.03
2019-05-02T16:40:11.906Z,27.63
2019-05-02T16:42:41.918Z,29.40
2019-05-02T16:45:11.960Z,29.13
2019-05-02T16:47:42.282Z,28.07
2019-05-02T16:50:12.379Z,28.40
2019-05-02T16:52:43.669Z,27.93
2019-05-02T16:55:20.641Z,27.63
2019-05-02T16:57:44.116Z,30.13
2019-05-02T17:00:16.355Z,29.17
2019-05-02T17:02:46.479Z,30.67
2019-05-02T17:05:16.211Z,33.37
2019-05-02T17:08:18.503Z,33.60
2019-05-02T17:10:53.704Z,34.53
2019-05-02T17:13:21.640Z,36.30
2019-05-02T17:15:52.301Z,38.53
2019-05-02T17:18:22.789Z,38.83
2019-05-02T17:20:56.362Z,39.27
2019-05-02T17:23:23.093Z,38.90
2019-05-02T17:25:52.389Z,39.97
2019-05-02T17:28:22.328Z,41.47
2019-05-02T17:30:52.503Z,40.50
2019-05-02T17:33:21.884Z,43.57
2019-05-02T17:35:54.199Z,44.13
2019-05-02T17:38:25.068Z,42.80
2019-05-02T17:40:54.492Z,44.27
2019-05-02T17:43:24.426Z,46.17
2019-05-02T17:45:53.653Z,43.97
2019-05-02T17:48:23.162Z,47.90
2019-05-02T17:51:12.372Z,48.47
2019-05-02T17:53:49.337Z,47.07
2019-05-02T17:56:20.955Z,47.00
2019-05-02T17:58:47.323Z,46.13
2019-05-02T18:01:21.656Z,48.57
2019-05-02T18:03:52.062Z,49.47
2019-05-02T18:06:32.439Z,48.50
2019-05-02T18:08:55.235Z,48.37
2019-05-02T18:11:23.253Z,47.43
2019-05-02T18:13:52.849Z,54.80
2019-05-02T18:16:22.136Z,48.83
2019-05-02T18:18:52.144Z,48.73
2019-05-02T18:21:26.910Z,53.57
2019-05-02T18:23:57.044Z,50.50
2019-05-02T18:26:23.626Z,54.90
2019-05-02T18:28:57.208Z,53.70
2019-05-02T18:31:24.308Z,55.97
2019-05-02T18:33:53.765Z,54.67
2019-05-02T18:36:26.810Z,52.63
2019-05-02T18:39:00.660Z,52.43
2019-05-02T18:41:25.870Z,54.97
2019-05-02T18:43:55.180Z,53.07
2019-05-02T18:46:24.495Z,53.50
2019-05-02T18:48:53.771Z,51.70
2019-05-02T18:51:22.981Z,50.83
2019-05-02T18:53:52.976Z,53.17
2019-05-02T18:56:22.582Z,51.10
2019-05-02T18:58:53.487Z,50.47
2019-05-02T19:01:22.827Z,48.27
2019-05-02T19:03:56.093Z,50.03
2019-05-02T19:06:23.075Z,51.10
2019-05-02T19:08:53.540Z,54.73
2019-05-02T19:11:26.853Z,52.67
2019-05-02T19:13:54.308Z,49.33
2019-05-02T19:16:27.236Z,52.27
2019-05-02T19:18:57.393Z,52.90
2019-05-02T19:21:26.536Z,35.27
2019-05-02T19:23:57.083Z,37.73
2019-05-02T19:26:26.669Z,36.27
2019-05-02T19:29:17.184Z,28.60
2019-05-02T19:31:48.510Z,22.00
2019-05-02T19:34:22.844Z,19.13
2019-05-02T19:36:49.125Z,22.47
2019-05-02T19:39:18.426Z,19.00
2019-05-02T19:41:47.995Z,20.87
2019-05-02T19:44:21.431Z,20.17
2019-05-02T19:46:48.148Z,23.80
2019-05-02T19:49:17.697Z,23.77
2019-05-02T19:51:50.390Z,23.47
2019-05-02T19:54:17.869Z,26.43
2019-05-02T19:56:47.674Z,33.50
2019-05-02T19:59:22.440Z,32.90
2019-05-02T20:01:48.011Z,33.13
2019-05-02T20:04:17.495Z,37.87
2019-05-02T20:06:46.812Z,33.17
2019-05-02T20:09:16.045Z,34.20
2019-05-02T20:11:45.676Z,31.83
2019-05-02T20:14:14.870Z,30.23
2019-05-02T20:16:49.834Z,25.27
2019-05-02T20:19:23.092Z,20.27
2019-05-02T20:22:02.793Z,17.47
2019-05-02T20:24:49.209Z,16.47
2019-05-02T20:27:18.559Z,14.30
2019-05-02T20:29:47.894Z,18.40
2019-05-02T20:32:17.223Z,13.63
2019-05-02T20:34:46.588Z,14.03
2019-05-02T20:37:16.295Z,14.43
2019-05-02T20:39:45.551Z,17.43
2019-05-02T20:42:15.457Z,13.30
2019-05-02T20:44:44.875Z,11.30
2019-05-02T20:47:18.240Z,11.30
2019-05-02T20:49:47.545Z,11.13
2019-05-02T20:52:16.855Z,16.30
2019-05-02T20:54:46.243Z,15.63
2019-05-02T20:57:15.877Z,12.27
2019-05-02T20:59:45.250Z,14.30
2019-05-02T21:02:14.641Z,13.03
2019-05-02T21:04:43.967Z,12.63
2019-05-02T21:07:34.705Z,14.30
2019-05-02T21:10:17.087Z,12.03
2019-05-02T21:12:46.350Z,17.00
2019-05-02T21:15:18.259Z,13.27
2019-05-02T21:17:47.167Z,12.87
2019-05-02T21:20:16.449Z,17.23
2019-05-02T21:22:45.821Z,12.60
2019-05-02T21:25:15.127Z,15.13
2019-05-02T21:27:44.535Z,12.90
2019-05-02T21:30:14.756Z,14.40
2019-05-02T21:32:44.064Z,15.00
2019-05-02T21:35:13.679Z,13.33
2019-05-02T21:37:43.385Z,13.63
2019-05-02T21:40:13.544Z,18.43
2019-05-02T21:42:42.837Z,13.17
2019-05-02T21:45:13.164Z,12.47
2019-05-02T21:47:42.749Z,13.40
2019-05-02T21:50:21.751Z,12.23
2019-05-02T21:53:12.595Z,13.90
2019-05-02T21:55:52.066Z,14.30
2019-05-02T21:58:21.640Z,14.40
2019-05-02T22:01:02.037Z,17.37
2019-05-02T22:03:32.454Z,13.50
2019-05-02T22:06:02.006Z,14.73
2019-05-02T22:08:32.313Z,15.47
2019-05-02T22:11:02.071Z,16.60
2019-05-02T22:13:33.269Z,18.23
2019-05-02T22:16:02.688Z,18.83
2019-05-02T22:18:32.248Z,17.37
2019-05-02T22:21:01.810Z,21.30
2019-05-02T22:23:33.836Z,18.37
2019-05-02T22:26:02.502Z,19.33
2019-05-02T22:28:32.668Z,20.97
2019-05-02T22:31:03.241Z,21.50
2019-05-02T22:33:33.074Z,22.30
2019-05-02T22:36:02.654Z,21.83
2019-05-02T22:38:45.248Z,21.57
2019-05-02T22:41:14.880Z,21.13
2019-05-02T22:43:44.271Z,29.07
2019-05-02T22:46:16.030Z,22.27
2019-05-02T22:48:45.335Z,22.57
2019-05-02T22:51:15.151Z,25.47
2019-05-02T22:53:44.536Z,24.10
2019-05-02T22:56:13.836Z,28.07
2019-05-02T22:58:43.439Z,24.97
2019-05-02T23:01:13.505Z,20.80
2019-05-02T23:03:43.114Z,20.77
2019-05-02T23:06:12.572Z,22.77
2019-05-02T23:08:43.508Z,20.13
2019-05-02T23:11:13.043Z,24.00
2019-05-02T23:13:42.474Z,20.87
2019-05-02T23:16:12.078Z,20.57
2019-05-02T23:18:42.584Z,18.40
2019-05-02T23:21:12.730Z,20.63
2019-05-02T23:23:42.528Z,16.67
2019-05-02T23:26:18.668Z,16.63
2019-05-02T23:28:51.686Z,20.30
2019-05-02T23:31:22.628Z,17.83
2019-05-02T23:34:02.130Z,14.57
2019-05-02T23:36:32.825Z,16.67
2019-05-02T23:39:02.529Z,17.97
2019-05-02T23:41:32.868Z,17.47
2019-05-02T23:44:02.906Z,16.57
2019-05-02T23:46:32.231Z,16.70
2019-05-02T23:49:02.036Z,15.07
2019-05-02T23:51:32.437Z,15.60
2019-05-02T23:54:02.226Z,14.80
2019-05-02T23:56:32.636Z,15.77
2019-05-02T23:59:02.873Z,16.07
